map of VPE home
VPE - Airport
Location
City:  Ongiva, Cunene, Angola
Near (Alt.):Ngiva, Ondjiva
ICAO:FNGI
IATA:VPE

Details
Type:Airport (Aerodrome, Airfield)
Latitude:1702'36"S (-17.043463)
Longitude:1541'02"E (15.683822)
Datum:WGS 1984
Elevation:3566 ft (1087 m)
Variation:7.09W (WMM2015 magnetic declination)
0.16 annual change
Runways:1
Longest:10640 × 95 ft (3243 × 29 m), paved

Time
Time Zone:UTC+1
Local Time:

Weather
METAR:FNGI 121600Z 20006KT CAVOK 36/01 Q1015
TAF:FNGI 122300Z 1300/1312 19010KT 9999 FEW023
BECMG 1310/1312 20008KT 9000 NSC

Related Locations
Nearby:
Farthest:BKH: 11985 mi / 19288 km
Kekaha [Barking Sands Pacific Missile Range Facility (PMRF) Airport], Kauai, HI, US

Find:

   beyond  
but within

Other Information
Maps:
NOTAMs:
Links:
Sources:

  
  • flag of Angola
  

Sectional Chart

Flight Planning
at skyvector.com

Satellite Image

Google Maps Satellite view

 

Copyright © 2004-2018 Karl L. Swartz. All rights reserved.
The Great Circle Mapper name and logo are trademarks of the Great Circle Mapper.
All other trademarks mentioned herein belong to their respective owners.
Please see credits for attibutions and further copyright information.

  Follow gcmap on Facebook Follow gcmap on Twitter Follow gcmap on Google+ GCmap on LinkedIn

hCard Microformat

Geo Microformat